TimeCST,TemperatureF,Dew PointF,Humidity,Sea Level PressureIn,VisibilityMPH,Wind Direction,Wind SpeedMPH,Gust SpeedMPH,PrecipitationIn,Events,Conditions,WindDirDegrees,DateUTC
12:53 AM,32.0,26.1,79,30.40,10.0,NNW,3.5,-,N/A,,Clear,340,2012-12-30 06:53:00
1:53 AM,30.0,25.0,82,30.42,10.0,North,5.8,-,N/A,,Clear,350,2012-12-30 07:53:00
2:53 AM,30.9,26.1,82,30.44,10.0,NNW,3.5,-,N/A,,Clear,340,2012-12-30 08:53:00
3:53 AM,30.0,25.0,82,30.44,10.0,Calm,Calm,-,N/A,,Clear,0,2012-12-30 09:53:00
4:53 AM,28.9,24.1,82,30.45,10.0,Calm,Calm,-,N/A,,Clear,0,2012-12-30 10:53:00
5:53 AM,27.0,23.0,85,30.47,10.0,NNE,5.8,-,N/A,,Clear,20,2012-12-30 11:53:00
6:53 AM,28.0,23.0,81,30.49,10.0,North,5.8,-,N/A,,Clear,10,2012-12-30 12:53:00
7:53 AM,30.9,25.0,79,30.50,10.0,North,5.8,-,N/A,,Clear,10,2012-12-30 13:53:00
8:53 AM,35.1,26.1,70,30.52,10.0,NNE,9.2,-,N/A,,Clear,20,2012-12-30 14:53:00
9:53 AM,39.0,26.1,60,30.53,10.0,NE,6.9,-,N/A,,Clear,50,2012-12-30 15:53:00
10:53 AM,43.0,25.0,49,30.50,10.0,NNE,9.2,-,N/A,,Clear,20,2012-12-30 16:53:00
11:53 AM,46.0,25.0,44,30.46,10.0,NNE,6.9,-,N/A,,Clear,30,2012-12-30 17:53:00
12:53 PM,50.0,25.0,38,30.41,10.0,North,10.4,-,N/A,,Clear,360,2012-12-30 18:53:00
1:53 PM,52.0,25.0,35,30.39,10.0,NNE,8.1,-,N/A,,Clear,30,2012-12-30 19:53:00
2:53 PM,53.1,24.1,32,30.38,10.0,NE,6.9,-,N/A,,Clear,50,2012-12-30 20:53:00
3:53 PM,53.1,25.0,34,30.38,10.0,North,5.8,-,N/A,,Clear,10,2012-12-30 21:53:00
4:53 PM,48.9,27.0,43,30.38,10.0,Calm,Calm,-,N/A,,Clear,0,2012-12-30 22:53:00
5:53 PM,39.0,30.0,70,30.41,10.0,Calm,Calm,-,N/A,,Clear,0,2012-12-30 23:53:00
6:53 PM,36.0,30.0,79,30.43,10.0,Calm,Calm,-,N/A,,Clear,0,2012-12-31 00:53:00
7:53 PM,34.0,30.0,85,30.42,10.0,Calm,Calm,-,N/A,,Clear,0,2012-12-31 01:53:00
8:53 PM,33.1,30.0,89,30.42,10.0,Calm,Calm,-,N/A,,Clear,0,2012-12-31 02:53:00
9:53 PM,30.9,28.0,89,30.42,10.0,Calm,Calm,-,N/A,,Clear,0,2012-12-31 03:53:00
10:53 PM,30.9,28.9,92,30.38,10.0,Calm,Calm,-,N/A,,Clear,0,2012-12-31 04:53:00
11:53 PM,30.0,28.0,92,30.37,10.0,Calm,Calm,-,N/A,,Clear,0,2012-12-31 05:53:00